Flight Track Log - Related Links

Times and Time Zones

All times are in EST time to prevent confusion due to time zone crossing. See the UPS214 flight status page for this flight to view local times or setup timezone preferences in your user account.

Time Position Orientation Groundspeed Altitude Reporting Facility
EST Latitude Longitude Course Direction KTS MPH feet Rate Location/Type
Mon 07:47:00 PM 54.5802 -47.2170 185° South  Level Estimated
Mon 07:48:00 PM 54.5440 -47.4291 184° South  Level Estimated
Mon 07:49:00 PM 54.5142 -47.6439 257° West  Level FlightAware Approximate
Mon 07:50:00 PM 54.4841 -47.8584 256° West  Level FlightAware Approximate
Mon 07:51:00 PM 54.4535 -48.0726 256° West  Level FlightAware Approximate
Mon 07:52:00 PM 54.4225 -48.2865 256° West  Level FlightAware Approximate
Mon 07:53:00 PM 54.3912 -48.5000 256° West  Level FlightAware Approximate
Mon 07:54:00 PM 54.3595 -48.7133 256° West  Level FlightAware Approximate
Mon 07:55:00 PM 54.3274 -48.9262 256° West  Level FlightAware Approximate
Mon 07:56:00 PM 54.2950 -49.1387 255° West  Level FlightAware Approximate
Mon 07:57:00 PM 54.2553 -49.3475 185° South  Level Estimated
Mon 07:58:00 PM 54.2213 -49.5589 255° West  Level FlightAware Approximate
Mon 07:59:00 PM 54.1869 -49.7700 255° West  Level FlightAware Approximate
Mon 08:00:00 PM 54.1460 -49.9776 180° South  Level Estimated
Mon 08:01:00 PM 54.1049 -50.1847 183° South  Level Estimated
Mon 08:02:00 PM 54.0681 -50.3941 253° West  Level FlightAware Approximate
Mon 08:03:00 PM 54.0262 -50.6004 188° South  Level Estimated
Mon 08:04:00 PM 53.9881 -50.8086 253° West  Level FlightAware Approximate
Mon 08:05:00 PM 53.9455 -51.0141 183° South  Level Estimated
Mon 08:06:00 PM 53.9056 -51.2210 252° West  Level FlightAware Approximate
Mon 08:06:48 PM 65.5667 -52.9500 142° Southeast 440 506 32,000  Level Gander Center
Mon 08:07:00 PM 53.8623 -51.4257 201° Southwest  Level Estimated
Mon 08:07:48 PM 65.5167 -53.2333 247° West 450 518 32,100  Level Gander Center
Mon 08:08:00 PM 53.8186 -51.6299 132° Southeast  Level Estimated
Mon 08:08:48 PM 65.4500 -53.5000 239° Southwest 450 518 32,100  Level Gander Center
Mon 08:09:00 PM 53.7746 -51.8337 159° South  Level Estimated
Mon 08:09:48 PM 65.4000 -53.7833 247° West 450 518 32,000  Level Gander Center
Mon 08:10:00 PM 53.7302 -52.0371 156° South  Level Estimated
Mon 08:10:48 PM 65.3667 -54.0333 252° West 450 518 32,000  Level Gander Center
Mon 08:11:00 PM 53.6855 -52.2400 152° Southeast  Level Estimated
Mon 08:11:48 PM 65.3167 -54.3333 248° West 450 518 32,000  Level Gander Center
Mon 08:12:00 PM 53.6404 -52.4425 142° Southeast  Level Estimated
Mon 08:12:48 PM 65.2500 -54.5833 238° Southwest 440 506 32,000  Level Gander Center
Mon 08:13:48 PM 65.2000 -54.8333 245° Southwest 440 506 32,000  Level Gander Center
Mon 08:14:48 PM 65.1500 -55.1167 247° West 440 506 32,000  Level Gander Center
Mon 08:15:48 PM 65.1000 -55.3667 245° Southwest 440 506 32,000  Level Gander Center
Mon 08:16:48 PM 65.0500 -55.6167 245° Southwest 450 518 32,000  Level Gander Center
Mon 08:17:48 PM 65.0000 -55.9000 247° West 450 518 32,000 50 Level Gander Center
Mon 08:18:48 PM 64.9333 -56.1833 241° Southwest 460 529 32,100 50 Climbing Gander Center
Mon 08:19:48 PM 64.8833 -56.4167 243° Southwest 460 529 32,100  Level Gander Center
Mon 08:20:48 PM 64.8167 -56.7000 241° Southwest 460 529 32,100 -35 Level Gander Center
Mon 08:22:39 PM 64.7167 -57.1833 244° Southwest 450 518 32,000 -35 Descending Gander Center
Mon 08:23:39 PM 64.6500 -57.4167 236° Southwest 450 518 32,000  Level Gander Center
Mon 08:24:39 PM 64.6167 -57.6667 253° West 440 506 32,000  Level Gander Center
Mon 08:25:39 PM 64.5500 -57.9333 240° Southwest 450 518 32,000 50 Level Gander Center
Mon 08:26:39 PM 64.5000 -58.1833 245° Southwest 450 518 32,100 50 Climbing Gander Center
Mon 08:27:39 PM 64.4333 -58.4500 240° Southwest 450 518 32,100  Level Gander Center
Mon 08:28:39 PM 64.3667 -58.7167 240° Southwest 460 529 32,100 -50 Level Gander Center
Mon 08:29:39 PM 64.3167 -58.9500 244° Southwest 450 518 32,000 -50 Descending Gander Center
Mon 08:30:39 PM 64.2500 -59.1833 237° Southwest 450 518 32,000  Level Gander Center
Mon 08:31:39 PM 64.1833 -59.4667 242° Southwest 450 518 32,000  Level Gander Center
Mon 08:32:39 PM 64.1167 -59.7000 237° Southwest 460 529 32,000  Level Gander Center
Mon 08:33:39 PM 64.0333 -59.9167 229° Southwest 470 541 32,000  Level Gander Center
Mon 08:34:39 PM 63.9667 -60.1500 237° Southwest 460 529 32,000  Level Gander Center
Mon 08:35:39 PM 63.9000 -60.4167 240° Southwest 460 529 32,000  Level Gander Center
Mon 08:36:39 PM 63.8167 -60.6500 231° Southwest 470 541 32,000  Level Gander Center
Mon 08:37:39 PM 63.7500 -60.8333 231° Southwest 460 529 32,000  Level Gander Center
Mon 08:38:39 PM 63.6667 -61.1000 235° Southwest 460 529 32,000  Level Gander Center
Mon 08:39:39 PM 63.5833 -61.3167 229° Southwest 460 529 32,000  Level Gander Center
Mon 08:40:39 PM 63.5167 -61.5500 237° Southwest 460 529 32,000  Level Gander Center
Mon 08:41:39 PM 63.4333 -61.7667 229° Southwest 460 529 32,000  Level Gander Center
Mon 08:42:39 PM 63.3500 -62.0167 233° Southwest 500 575 32,000  Level Gander Center
Mon 08:43:39 PM 63.2667 -62.2333 230° Southwest 460 529 32,000  Level Gander Center
Mon 08:44:39 PM 63.1833 -62.4500 230° Southwest 460 529 32,000  Level Gander Center
Mon 08:45:39 PM 63.1000 -62.6333 225° Southwest 470 541 32,000  Level Gander Center
Mon 08:46:39 PM 63.0167 -62.8500 230° Southwest 470 541 32,000  Level Gander Center
Mon 08:47:39 PM 62.9167 -63.0667 225° Southwest 470 541 32,000  Level Gander Center
Mon 08:48:39 PM 62.8333 -63.2333 222° Southwest 470 541 32,000 50 Level Gander Center
Mon 08:49:39 PM 62.7333 -63.4500 225° Southwest 470 541 32,100  Climbing Gander Center
Mon 08:50:39 PM 62.6333 -63.6667 225° Southwest 470 541 32,000 -50 Descending Gander Center
Mon 08:51:39 PM 62.5500 -63.8667 228° Southwest 470 541 32,000  Level Gander Center
Mon 08:52:39 PM 62.4667 -64.0833 230° Southwest 470 541 32,000  Level Gander Center
Mon 08:53:39 PM 62.3833 -64.2500 223° Southwest 460 529 32,000  Level Gander Center
Mon 08:54:39 PM 62.2833 -64.4500 223° Southwest 460 529 32,000  Level Gander Center
Mon 08:55:39 PM 62.1833 -64.6500 223° Southwest 470 541 32,000 50 Level Gander Center
Mon 08:56:39 PM 62.1000 -64.8333 226° Southwest 470 541 32,100 50 Climbing Gander Center
Mon 08:57:39 PM 62.0167 -65.0333 228° Southwest 460 529 32,100 -50 Level Gander Center
Mon 08:58:39 PM 61.9167 -65.2333 223° Southwest 460 529 32,000 -50 Descending Gander Center
Mon 08:59:39 PM 61.8167 -65.4333 223° Southwest 470 541 32,000  Level Gander Center
Mon 09:00:39 PM 61.7333 -65.6333 229° Southwest 470 541 32,000  Level Gander Center
Mon 09:01:39 PM 61.6167 -65.7833 211° Southwest 470 541 32,000  Level Gander Center
Mon 09:02:39 PM 61.5333 -65.9833 229° Southwest 470 541 32,000  Level Gander Center
Mon 09:03:39 PM 61.4500 -66.1833 229° Southwest 460 529 32,000  Level Gander Center
Mon 09:04:39 PM 61.3500 -66.3333 216° Southwest 460 529 32,000  Level Gander Center
Mon 09:05:39 PM 61.2500 -66.5333 224° Southwest 470 541 32,000  Level Gander Center
Mon 09:10:36 PM 60.7550 -67.4380 224° Southwest 471 542 32,000  Level FlightAware ADS-B
Mon 09:11:24 PM 60.6980 -67.5440 222° Southwest 472 543 32,000  Level FlightAware ADS-B
Mon 09:12:25 PM 60.5820 -67.7570 222° Southwest 473 544 32,000  Level FlightAware ADS-B
Mon 09:13:21 PM 60.4880 -67.9260 222° Southwest 472 543 32,000  Level FlightAware ADS-B
Mon 09:14:11 PM 60.4060 -68.0740 222° Southwest 471 542 32,000  Level FlightAware ADS-B
Mon 09:15:09 PM 60.3110 -68.2440 222° Southwest 470 541 32,000  Level FlightAware ADS-B
Mon 09:15:54 PM 60.2380 -68.3740 222° Southwest 469 540 32,000  Level FlightAware ADS-B
Mon 09:16:20 PM 60.1960 -68.4480 221° Southwest 470 541 32,000  Level FlightAware ADS-B
Mon 09:17:14 PM 60.1070 -68.6030 221° Southwest 470 541 32,000  Level FlightAware ADS-B
Mon 09:18:13 PM 60.0100 -68.7720 221° Southwest 469 540 32,000  Level FlightAware ADS-B
Mon 09:19:16 PM 59.9080 -68.9480 221° Southwest 469 540 32,000  Level FlightAware ADS-B
Mon 09:19:42 PM 59.8650 -69.0220 221° Southwest 469 540 32,000  Level FlightAware ADS-B
Mon 09:20:31 PM 59.7840 -69.1600 221° Southwest 469 540 32,000  Level FlightAware ADS-B
Mon 09:21:04 PM 59.7300 -69.2530 221° Southwest 470 541 32,000  Level FlightAware ADS-B
Mon 09:21:56 PM 59.6450 -69.3970 221° Southwest 469 540 32,000  Level FlightAware ADS-B
Mon 09:22:48 PM 59.5590 -69.5400 220° Southwest 469 540 32,000  Level FlightAware ADS-B
Mon 09:23:16 PM 59.5120 -69.6180 220° Southwest 469 540 32,000  Level FlightAware ADS-B
Mon 09:24:14 PM 59.4160 -69.7790 221° Southwest 470 541 32,000  Level FlightAware ADS-B
Mon 09:24:49 PM 59.3590 -69.8730 220° Southwest 470 541 32,000  Level FlightAware ADS-B
Mon 09:25:50 PM 59.2560 -70.0400 220° Southwest 470 541 32,000  Level FlightAware ADS-B
Mon 09:26:30 PM 59.1910 -70.1460 220° Southwest 471 542 32,000  Level FlightAware ADS-B
Mon 09:27:26 PM 59.0970 -70.2970 220° Southwest 471 542 32,000  Level FlightAware ADS-B
Mon 09:27:49 PM 59.0580 -70.3600 220° Southwest 472 543 32,000  Level FlightAware ADS-B
Mon 09:28:47 PM 58.9690 -70.5020 219° Southwest 472 543 32,000  Level FlightAware ADS-B
Mon 09:29:12 PM 58.9330 -70.5580 219° Southwest 472 543 32,000  Level FlightAware ADS-B
Mon 09:30:00 PM 58.8640 -70.6670 219° Southwest 472 543 32,000  Level FlightAware ADS-B
Mon 09:30:48 PM 58.7950 -70.7750 219° Southwest 472 543 32,000  Level FlightAware ADS-B
Mon 09:31:49 PM 58.7070 -70.9120 219° Southwest 472 543 32,000  Level FlightAware ADS-B
Mon 09:32:03 PM 58.6870 -70.9440 220° Southwest 472 543 32,000  Level FlightAware ADS-B
Mon 09:32:39 PM 58.6350 -71.0250 219° Southwest 472 543 32,000  Level FlightAware ADS-B
Mon 09:33:51 PM 58.5310 -71.1860 219° Southwest 472 543 32,000  Level FlightAware ADS-B
Mon 09:34:28 PM 58.4770 -71.2690 219° Southwest 472 543 32,000  Level FlightAware ADS-B
Mon 09:35:17 PM 58.4070 -71.3780 219° Southwest 472 543 32,000  Level FlightAware ADS-B
Mon 09:36:08 PM 58.3330 -71.4910 219° Southwest 472 543 32,000  Level FlightAware ADS-B
Mon 09:36:45 PM 58.2800 -71.5740 219° Southwest 472 543 32,000  Level FlightAware ADS-B
Mon 09:37:21 PM 58.2280 -71.6540 219° Southwest 472 543 32,000  Level FlightAware ADS-B
Mon 09:37:57 PM 58.1760 -71.7330 219° Southwest 472 543 32,000  Level FlightAware ADS-B
Mon 09:38:48 PM 57.9667 -72.1000 219° Southwest 470 541 32,000  Level Gander Center
Mon 09:39:48 PM 57.8500 -72.2833 220° Southwest 470 541 32,000  Level Gander Center
Mon 09:40:48 PM 57.7500 -72.4167 215° Southwest 470 541 32,000  Level Gander Center
Mon 09:41:48 PM 57.6333 -72.5667 215° Southwest 470 541 32,000  Level Gander Center
Mon 09:42:48 PM 57.5333 -72.7167 219° Southwest 470 541 32,000 50 Level Gander Center
Mon 09:43:48 PM 57.4500 -72.8500 221° Southwest 480 552 32,100 50 Climbing Gander Center
Mon 09:44:48 PM 57.3333 -73.0000 215° Southwest 480 552 32,100  Level Gander Center
Mon 09:45:48 PM 57.2333 -73.1500 219° Southwest 480 552 32,100 -50 Level Gander Center
Mon 09:46:48 PM 57.1167 -73.3000 215° Southwest 480 552 32,000 -50 Descending Gander Center
Mon 09:47:48 PM 57.0167 -73.4667 222° Southwest 480 552 32,000  Level Gander Center
Mon 09:48:48 PM 56.9000 -73.5833 209° Southwest 470 541 32,000  Level Gander Center
Mon 09:49:48 PM 56.8000 -73.7333 219° Southwest 470 541 32,000  Level Gander Center
Mon 09:50:48 PM 56.6833 -73.8833 215° Southwest 470 541 32,000  Level Gander Center
Mon 09:51:48 PM 56.5833 -74.0000 213° Southwest 470 541 32,000 50 Level Gander Center
Mon 09:52:48 PM 56.4667 -74.1500 215° Southwest 470 541 32,100 50 Climbing Gander Center
Mon 09:53:48 PM 56.3667 -74.3000 220° Southwest 480 552 32,100  Level Gander Center
Mon 09:54:48 PM 56.2667 -74.4500 220° Southwest 480 552 32,100 -50 Level Gander Center
Mon 09:55:48 PM 56.1500 -74.5833 212° Southwest 480 552 32,000 -50 Descending Gander Center
Mon 09:56:48 PM 56.0500 -74.7333 220° Southwest 480 552 32,000  Level Gander Center
Mon 09:57:48 PM 55.9500 -74.8500 213° Southwest 480 552 32,000  Level Gander Center
Mon 09:58:48 PM 55.8500 -75.0000 220° Southwest 480 552 32,000  Level Gander Center
Mon 09:59:48 PM 55.7500 -75.1333 217° Southwest 470 541 32,000  Level Gander Center
Mon 10:00:48 PM 55.6333 -75.2833 216° Southwest 480 552 32,000  Level Gander Center
Mon 10:01:48 PM 55.5167 -75.4167 213° Southwest 480 552 32,000 50 Level Gander Center
Mon 10:02:48 PM 55.4000 -75.5667 216° Southwest 480 552 32,100 50 Climbing Gander Center
Mon 10:03:48 PM 55.2833 -75.7000 213° Southwest 480 552 32,100 -50 Level Gander Center
Mon 10:04:48 PM 55.1833 -75.8333 217° Southwest 500 575 32,000 -50 Descending Gander Center
Mon 10:05:48 PM 55.0667 -75.9500 210° Southwest 490 564 32,000  Level Gander Center
Mon 10:06:48 PM 54.9500 -76.0833 213° Southwest 490 564 32,000  Level Gander Center
Mon 10:07:48 PM 54.8500 -76.2167 218° Southwest 490 564 32,000  Level Gander Center
Mon 10:08:48 PM 54.7333 -76.3500 213° Southwest 490 564 32,000  Level Gander Center
Mon 10:09:48 PM 54.6333 -76.4833 218° Southwest 480 552 32,000  Level Gander Center
Mon 10:10:48 PM 54.5167 -76.6167 214° Southwest 480 552 32,000  Level Gander Center
Mon 10:11:48 PM 54.4167 -76.7667 221° Southwest 490 564 32,000  Level Gander Center
Mon 10:12:48 PM 54.3000 -76.8833 210° Southwest 480 552 32,000  Level Gander Center
Mon 10:14:03 PM 54.1667 -77.0000 207° Southwest 490 564 32,000 44 Level Montreal Center
Mon 10:15:03 PM 54.0500 -77.1333 214° Southwest 490 564 32,100 50 Climbing Montreal Center
Mon 10:16:03 PM 53.9333 -77.2833 217° Southwest 490 564 32,100  Level Montreal Center
Mon 10:17:03 PM 53.8167 -77.3833 207° Southwest 500 575 32,100 -50 Level Montreal Center
Mon 10:18:03 PM 53.6833 -77.5333 214° Southwest 500 575 32,000 -50 Descending Montreal Center
Mon 10:19:03 PM 53.5833 -77.6667 218° Southwest 500 575 32,000  Level Montreal Center
Mon 10:20:03 PM 53.4667 -77.8000 214° Southwest 490 564 32,000  Level Montreal Center
Mon 10:21:03 PM 53.3500 -77.9167 211° Southwest 490 564 32,000  Level Montreal Center
Mon 10:22:03 PM 53.2333 -78.0500 214° Southwest 490 564 32,000  Level Montreal Center
Mon 10:23:03 PM 53.1167 -78.1833 214° Southwest 490 564 32,000 50 Level Montreal Center
Mon 10:24:03 PM 53.0000 -78.2833 207° Southwest 500 575 32,100 50 Climbing Montreal Center
Mon 10:25:03 PM 52.8833 -78.4167 215° Southwest 500 575 32,100 -50 Level Montreal Center
Mon 10:26:03 PM 52.7500 -78.5500 211° Southwest 500 575 32,000 -50 Descending Montreal Center
Mon 10:27:03 PM 52.6500 -78.6833 219° Southwest 500 575 32,000  Level Montreal Center
Mon 10:28:03 PM 52.5333 -78.7833 208° Southwest 500 575 32,000  Level Montreal Center
Mon 10:29:03 PM 52.4167 -78.9167 215° Southwest 500 575 32,000  Level Montreal Center
Mon 10:30:03 PM 52.2833 -79.0500 211° Southwest 500 575 32,000  Level Montreal Center
Mon 10:31:03 PM 52.1833 -79.1500 212° Southwest 500 575 32,000 50 Level Montreal Center
Mon 10:32:03 PM 52.0667 -79.2833 215° Southwest 500 575 32,100  Climbing Montreal Center
Mon 10:33:03 PM 51.9500 -79.4000 212° Southwest 500 575 32,000 -50 Descending Montreal Center
Mon 10:34:03 PM 51.8167 -79.5333 212° Southwest 500 575 32,000  Level Montreal Center
Mon 10:35:03 PM 51.7000 -79.6667 215° Southwest 500 575 32,000  Level Montreal Center
Mon 10:36:03 PM 51.5833 -79.7500 204° Southwest 500 575 32,000  Level Montreal Center
Mon 10:37:03 PM 51.4667 -79.8833 215° Southwest 500 575 32,000  Level Montreal Center
Mon 10:38:03 PM 51.3500 -80.0167 216° Southwest 500 575 32,000 50 Level Montreal Center
Mon 10:39:03 PM 51.2333 -80.1333 212° Southwest 500 575 32,100  Climbing Montreal Center
Mon 10:40:03 PM 51.1000 -80.2500 209° Southwest 500 575 32,000 -50 Descending Montreal Center
Mon 10:41:03 PM 50.9833 -80.3500 208° Southwest 500 575 32,000  Level Montreal Center
Mon 10:42:03 PM 50.8667 -80.4667 212° Southwest 500 575 32,000  Level Montreal Center
Mon 10:43:03 PM 50.7333 -80.6000 212° Southwest 500 575 32,000  Level Montreal Center
Mon 10:44:03 PM 50.6167 -80.7167 212° Southwest 500 575 32,000  Level Montreal Center
Mon 10:44:34 PM 50.5500 -80.7333 189° South 500 575 32,000  Level Toronto Center
Mon 10:45:34 PM 50.4500 -80.8333 212° Southwest 500 575 32,000  Level Toronto Center
Mon 10:46:34 PM 50.3167 -80.9667 213° Southwest 500 575 32,000  Level Toronto Center
Mon 10:47:34 PM 50.2000 -81.0667 209° Southwest 500 575 32,000  Level Toronto Center
Mon 10:48:34 PM 50.0833 -81.1667 209° Southwest 490 564 32,000  Level Toronto Center
Mon 10:49:34 PM 49.9667 -81.2833 213° Southwest 490 564 32,000  Level Toronto Center
Mon 10:50:34 PM 49.8500 -81.3833 209° Southwest 490 564 32,000  Level Toronto Center
Mon 10:51:34 PM 49.7333 -81.4833 209° Southwest 500 575 32,000  Level Toronto Center
Mon 10:52:34 PM 49.6167 -81.6167 217° Southwest 500 575 32,000  Level Toronto Center
Mon 10:53:34 PM 49.5000 -81.7000 205° Southwest 500 575 32,000  Level Toronto Center
Mon 10:54:34 PM 49.3833 -81.8333 217° Southwest 500 575 32,000  Level Toronto Center
Mon 10:55:34 PM 49.2667 -81.9333 209° Southwest 500 575 32,000  Level Toronto Center
Mon 10:56:34 PM 49.1333 -82.0167 202° Southwest 490 564 32,000  Level Toronto Center
Mon 10:57:34 PM 49.0167 -82.1500 217° Southwest 490 564 32,000  Level Toronto Center
Mon 10:58:34 PM 48.9000 -82.2333 205° Southwest 500 575 32,000 50 Level Toronto Center
Mon 10:59:34 PM 48.7833 -82.3333 209° Southwest 500 575 32,100 50 Climbing Toronto Center
Mon 11:00:34 PM 48.6667 -82.4500 213° Southwest 500 575 32,100 -50 Level Toronto Center
Mon 11:01:34 PM 48.5500 -82.5500 210° Southwest 500 575 32,000 -50 Descending Toronto Center
Mon 11:02:34 PM 48.4167 -82.6667 210° Southwest 500 575 32,000  Level Toronto Center
Mon 11:03:34 PM 48.3000 -82.7667 210° Southwest 490 564 32,000  Level Toronto Center
Mon 11:04:34 PM 48.1667 -82.8500 203° Southwest 490 564 32,000 18 Level Toronto Center
Mon 11:09:12 PM 47.6040 -83.2160 203° Southwest 494 568 32,100  Climbing FlightAware ADS-B
Mon 11:10:31 PM 47.4320 -83.3220 203° Southwest 494 568 32,000 -53 Descending FlightAware ADS-B
Mon 11:11:06 PM 47.3630 -83.3650 203° Southwest 494 568 32,000  Level FlightAware ADS-B
Mon 11:12:16 PM 47.2290 -83.4460 202° Southwest 494 568 32,000  Level FlightAware ADS-B
Mon 11:13:03 PM 47.1130 -83.5180 203° Southwest 493 567 32,000  Level FlightAware ADS-B
Mon 11:13:33 PM 47.0490 -83.5570 203° Southwest 493 567 32,000  Level FlightAware ADS-B
Mon 11:14:33 PM 46.9240 -83.6320 202° Southwest 492 566 32,000  Level FlightAware ADS-B
Mon 11:15:25 PM 46.8140 -83.6980 202° Southwest 491 565 32,000  Level FlightAware ADS-B
Mon 11:16:20 PM 46.6990 -83.7670 202° Southwest 490 564 32,000  Level FlightAware ADS-B
Mon 11:17:07 PM 46.6010 -83.8250 202° Southwest 489 563 32,000 59 Level FlightAware ADS-B
Mon 11:18:01 PM 46.4890 -83.8920 202° Southwest 487 560 32,100 50 Climbing FlightAware ADS-B
Mon 11:19:07 PM 46.3510 -83.9740 202° Southwest 483 556 32,100 -48 Level FlightAware ADS-B
Mon 11:20:06 PM 46.2290 -84.0460 202° Southwest 483 556 32,000 -67 Descending FlightAware ADS-B
Mon 11:20:36 PM 46.1670 -84.0820 202° Southwest 481 554 32,000  Level FlightAware ADS-B
Mon 11:21:28 PM 46.0590 -84.1460 202° Southwest 479 551 32,000  Level FlightAware ADS-B
Mon 11:21:54 PM 46.0050 -84.1770 202° Southwest 477 549 32,000  Level FlightAware ADS-B
Mon 11:22:55 PM 45.8830 -84.2480 202° Southwest 475 547 32,000  Level FlightAware ADS-B
Mon 11:23:49 PM 45.7730 -84.3110 202° Southwest 473 544 32,000  Level FlightAware ADS-B
Mon 11:24:47 PM 45.6550 -84.3790 202° Southwest 472 543 32,000  Level FlightAware ADS-B
Mon 11:25:44 PM 45.5390 -84.4450 202° Southwest 472 543 32,000  Level FlightAware ADS-B
Mon 11:26:12 PM 45.4830 -84.4770 202° Southwest 473 544 32,000  Level FlightAware ADS-B
Mon 11:26:44 PM 45.4170 -84.5150 202° Southwest 474 545 32,000  Level FlightAware ADS-B
Mon 11:27:38 PM 45.3070 -84.5770 202° Southwest 473 544 32,000  Level FlightAware ADS-B
Mon 11:28:14 PM 45.2340 -84.6190 202° Southwest 474 545 32,000  Level FlightAware ADS-B
Mon 11:28:49 PM 45.1630 -84.6590 202° Southwest 474 545 32,000 68 Level FlightAware ADS-B
Mon 11:29:42 PM 45.0560 -84.7190 202° Southwest 473 544 32,100 71 Climbing FlightAware ADS-B
Mon 11:30:13 PM 44.9920 -84.7550 202° Southwest 471 542 32,100  Level FlightAware ADS-B
Mon 11:30:44 PM 44.9290 -84.7900 201° Southwest 469 540 32,100 -78 Level FlightAware ADS-B
Mon 11:31:30 PM 44.8380 -84.8410 202° Southwest 465 535 32,000 -82 Descending FlightAware ADS-B
Mon 11:31:57 PM 44.7830 -84.8710 201° Southwest 462 532 32,000  Level FlightAware ADS-B
Mon 11:32:30 PM 44.7180 -84.9070 201° Southwest 461 531 32,000  Level FlightAware ADS-B
Mon 11:33:19 PM 44.6230 -84.9600 202° Southwest 464 534 32,000  Level FlightAware ADS-B
Mon 11:33:51 PM 44.5580 -84.9960 202° Southwest 467 537 32,000  Level FlightAware ADS-B
Mon 11:34:24 PM 44.4940 -85.0310 201° Southwest 470 541 32,000  Level FlightAware ADS-B
Mon 11:35:16 PM 44.3880 -85.0880 201° Southwest 471 542 32,000 58 Level FlightAware ADS-B
Mon 11:36:08 PM 44.2820 -85.1470 202° Southwest 472 543 32,100 64 Climbing FlightAware ADS-B
Mon 11:36:50 PM 44.1950 -85.1940 201° Southwest 473 544 32,100  Level FlightAware ADS-B
Mon 11:37:47 PM 44.0800 -85.2570 201° Southwest 473 544 32,100  Level FlightAware ADS-B
Mon 11:38:35 PM 43.9820 -85.3090 201° Southwest 469 540 32,100  Level FlightAware ADS-B
Mon 11:38:52 PM 43.9460 -85.3290 202° Southwest 466 536 32,100 -73 Level FlightAware ADS-B
Mon 11:39:57 PM 43.8180 -85.3980 201° Southwest 457 526 32,000 -65 Descending FlightAware ADS-B
Mon 11:40:25 PM 43.7630 -85.4270 201° Southwest 454 522 32,000  Level FlightAware ADS-B
Mon 11:41:26 PM 43.6430 -85.4910 201° Southwest 457 526 32,000  Level FlightAware ADS-B
Mon 11:42:14 PM 43.5490 -85.5410 201° Southwest 460 529 32,000 68 Level FlightAware ADS-B
Mon 11:42:54 PM 43.4680 -85.5840 201° Southwest 461 531 32,100 75 Climbing FlightAware ADS-B
Mon 11:43:34 PM 43.3900 -85.6250 201° Southwest 463 533 32,100  Level FlightAware ADS-B
Mon 11:44:26 PM 43.2860 -85.6800 201° Southwest 462 532 32,100  Level FlightAware ADS-B
Mon 11:45:14 PM 43.1900 -85.7300 201° Southwest 455 524 32,100 -60 Level FlightAware ADS-B
Mon 11:46:06 PM 43.0880 -85.7840 201° Southwest 451 519 32,000 -58 Descending FlightAware ADS-B
Mon 11:46:58 PM 42.9880 -85.8360 201° Southwest 447 514 32,000  Level FlightAware ADS-B
Mon 11:47:30 PM 42.9250 -85.8690 201° Southwest 444 511 32,000  Level FlightAware ADS-B
Mon 11:48:15 PM 42.8390 -85.9130 201° Southwest 441 507 32,000  Level FlightAware ADS-B
Mon 11:49:03 PM 42.7500 -85.9590 201° Southwest 438 504 32,000  Level FlightAware ADS-B
Mon 11:49:55 PM 42.6510 -86.0100 201° Southwest 436 502 32,000  Level FlightAware ADS-B
Mon 11:50:44 PM 42.5560 -86.0590 201° Southwest 435 501 32,000  Level FlightAware ADS-B
Mon 11:51:32 PM 42.4630 -86.0950 196° South 459 528 32,000 59 Level FlightAware ADS-B
Mon 11:52:25 PM 42.3440 -86.0950 180° South 482 555 32,100 69 Climbing FlightAware ADS-B
Mon 11:52:59 PM 42.2720 -86.0890 176° South 480 552 32,100 -65 Level FlightAware ADS-B
Mon 11:53:58 PM 42.1410 -86.0780 176° South 470 541 32,000 -63 Descending FlightAware ADS-B
Mon 11:54:35 PM 42.0610 -86.0710 176° South 465 535 32,000  Level FlightAware ADS-B
Mon 11:55:31 PM 41.9420 -86.0620 177° South 464 534 32,000  Level FlightAware ADS-B
Mon 11:55:56 PM 41.8910 -86.0580 177° South 466 536 32,000  Level FlightAware ADS-B
Mon 11:56:53 PM 41.7630 -86.0470 176° South 472 543 32,000 53 Level FlightAware ADS-B
Mon 11:57:49 PM 41.6410 -86.0370 176° South 476 548 32,100 71 Climbing FlightAware ADS-B
Mon 11:58:17 PM 41.5790 -86.0320 177° South 473 544 32,100 -113 Level FlightAware ADS-B
Mon 11:58:42 PM 41.5270 -86.0290 178° South 465 535 32,000 -83 Descending FlightAware ADS-B
Mon 11:59:29 PM 41.4270 -86.0380 184° South 454 522 32,000  Level FlightAware ADS-B
Tue 12:00:00 AM 41.3600 -86.0450 184° South 457 526 32,000  Level FlightAware ADS-B
Tue 12:00:52 AM 41.2490 -86.0560 184° South 460 529 32,000  Level FlightAware ADS-B
Tue 12:01:40 AM 41.1500 -86.0660 184° South 462 532 32,000 68 Level FlightAware ADS-B
Tue 12:02:20 AM 41.0640 -86.0750 185° South 464 534 32,100 75 Climbing FlightAware ADS-B
Tue 12:03:00 AM 40.9790 -86.0830 184° South 465 535 32,100  Level FlightAware ADS-B
Tue 12:04:00 AM 40.8500 -86.0960 184° South 466 536 32,100 -51 Level FlightAware ADS-B
Tue 12:04:58 AM 40.7250 -86.1080 184° South 466 536 32,000 -53 Descending FlightAware ADS-B
Tue 12:05:54 AM 40.6040 -86.1200 184° South 462 532 32,000  Level FlightAware ADS-B
Tue 12:06:48 AM 40.4890 -86.1320 185° South 461 531 32,000  Level FlightAware ADS-B
Tue 12:07:42 AM 40.3730 -86.1430 184° South 462 532 32,000  Level FlightAware ADS-B
Tue 12:08:10 AM 40.3140 -86.1490 184° South 463 533 32,000  Level FlightAware ADS-B
Tue 12:09:07 AM 40.1940 -86.1600 184° South 466 536 32,000 55 Level FlightAware ADS-B
Tue 12:10:00 AM 40.0770 -86.1720 184° South 467 537 32,100 75 Climbing FlightAware ADS-B
Tue 12:10:27 AM 40.0230 -86.1770 184° South 468 539 32,100  Level FlightAware ADS-B
Tue 12:10:58 AM 39.9520 -86.1840 184° South 468 539 32,100 -404 Level FlightAware ADS-B
Tue 12:11:56 AM 39.8270 -86.1960 184° South 451 519 31,500 -939 Descending FlightAware ADS-B
Tue 12:12:53 AM 39.7080 -86.2070 184° South 454 522 30,300 -1,677 Descending FlightAware ADS-B
Tue 12:13:29 AM 39.6320 -86.2140 184° South 445 512 28,900 -2,828 Descending FlightAware ADS-B
Tue 12:14:20 AM 39.5310 -86.2250 185° South 441 507 26,200 -3,533 Descending FlightAware ADS-B
Tue 12:15:16 AM 39.4160 -86.2360 184° South 450 518 22,600 -2,973 Descending FlightAware ADS-B
Tue 12:16:11 AM 39.3060 -86.2440 183° South 421 484 20,700 -2,231 Descending FlightAware ADS-B
Tue 12:16:34 AM 39.2590 -86.2490 185° South 413 475 19,700 -2,361 Descending FlightAware ADS-B
Tue 12:17:12 AM 39.1890 -86.2560 184° South 402 463 18,300 -2,710 Descending FlightAware ADS-B
Tue 12:18:07 AM 39.0850 -86.2660 184° South 403 464 15,500 -2,732 Descending FlightAware ADS-B
Tue 12:19:04 AM 38.9810 -86.2760 184° South 387 445 13,200 -2,365 Descending FlightAware ADS-B
Tue 12:19:51 AM 38.8980 -86.2840 184° South 375 432 11,400 -1,630 Descending FlightAware ADS-B
Tue 12:20:36 AM 38.8260 -86.2910 184° South 345 397 10,700 -532 Descending FlightAware ADS-B
Tue 12:21:10 AM 38.7740 -86.2960 184° South 298 343 10,700  Level FlightAware ADS-B
Tue 12:22:10 AM 38.6960 -86.2810 171° South 317 365 10,700 -155 Level FlightAware ADS-B
Tue 12:23:06 AM 38.6360 -86.2080 136° Southeast 314 361 10,400 -571 Descending FlightAware ADS-B
Tue 12:23:34 AM 38.6070 -86.1740 137° Southeast 315 362 9,900 -1,034 Descending FlightAware ADS-B
Tue 12:24:04 AM 38.5750 -86.1370 138° Southeast 309 356 9,400 -1,019 Descending FlightAware ADS-B
Tue 12:24:27 AM 38.5460 -86.1170 152° Southeast 294 338 9,000 -923 Descending FlightAware ADS-B
Tue 12:24:43 AM 38.5270 -86.1070 158° South 293 337 8,800 -980 Descending FlightAware ADS-B
Tue 12:25:16 AM 38.4860 -86.0840 156° South 289 333 8,200 -1,000 Descending FlightAware ADS-B
Tue 12:25:31 AM 38.4680 -86.0730 154° Southeast 286 329 8,000 -588 Descending FlightAware ADS-B
Tue 12:26:07 AM 38.4230 -86.0470 156° South 287 330 7,700 -300 Descending FlightAware ADS-B
Tue 12:26:31 AM 38.3940 -86.0300 155° Southeast 286 329 7,700  Level FlightAware ADS-B
Tue 12:27:03 AM 38.3560 -86.0090 157° South 273 314 7,700  Level FlightAware ADS-B
Tue 12:27:31 AM 38.3250 -85.9910 156° South 242 278 7,700 -125 Level FlightAware ADS-B
Tue 12:27:51 AM 38.3070 -85.9770 149° Southeast 233 268 7,600 -714 Descending FlightAware ADS-B
Tue 12:28:13 AM 38.2880 -85.9600 145° Southeast 229 264 7,200 -1,038 Descending FlightAware ADS-B
Tue 12:28:43 AM 38.2610 -85.9370 146° Southeast 222 255 6,700 -1,000 Descending FlightAware ADS-B
Tue 12:29:07 AM 38.2410 -85.9210 148° Southeast 218 251 6,300 -1,038 Descending FlightAware ADS-B
Tue 12:29:35 AM 38.2170 -85.9000 145° Southeast 217 250 5,800 -750 Descending FlightAware ADS-B
Tue 12:29:55 AM 38.2010 -85.8860 145° Southeast 215 247 5,700 -167 Descending FlightAware ADS-B
Tue 12:30:11 AM 38.1870 -85.8750 148° Southeast 216 249 5,700  Level FlightAware ADS-B
Tue 12:30:35 AM 38.1680 -85.8580 145° Southeast 218 251 5,700  Level FlightAware ADS-B
Tue 12:31:03 AM 38.1420 -85.8420 154° Southeast 210 242 5,700  Level FlightAware ADS-B
Tue 12:31:31 AM 38.1160 -85.8340 166° South 209 241 5,700  Level FlightAware ADS-B
Tue 12:32:03 AM 38.0870 -85.8250 166° South 204 235 5,700  Level FlightAware ADS-B
Tue 12:32:31 AM 38.0600 -85.8180 168° South 203 234 5,700  Level FlightAware ADS-B
Tue 12:32:55 AM 38.0390 -85.8120 167° South 205 236 5,700  Level FlightAware ADS-B
Tue 12:33:27 AM 38.0090 -85.7970 158° South 211 243 5,700  Level FlightAware ADS-B
Tue 12:33:47 AM 37.9910 -85.7880 158° South 211 243 5,700  Level FlightAware ADS-B
Tue 12:34:12 AM 37.9700 -85.7770 158° South 208 239 5,700  Level FlightAware ADS-B
Tue 12:34:39 AM 37.9440 -85.7640 158° South 208 239 5,700  Level FlightAware ADS-B
Tue 12:35:13 AM 37.9140 -85.7520 162° South 202 232 5,700 -237 Level FlightAware ADS-B
Tue 12:35:55 AM 37.8760 -85.7410 167° South 200 230 5,400 -600 Descending FlightAware ADS-B
Tue 12:36:13 AM 37.8590 -85.7370 169° South 197 227 5,100 -808 Descending FlightAware ADS-B
Tue 12:36:47 AM 37.8280 -85.7310 171° South 210 242 4,700 -414 Descending FlightAware ADS-B
Tue 12:37:11 AM 37.8050 -85.7270 172° South 209 241 4,700  Level FlightAware ADS-B
Tue 12:37:39 AM 37.7790 -85.7220 171° South 200 230 4,700  Level FlightAware ADS-B
Tue 12:37:59 AM 37.7590 -85.7190 173° South 203 234 4,700  Level FlightAware ADS-B
Tue 12:38:25 AM 37.7360 -85.7140 170° South 200 230 4,700 -387 Level FlightAware ADS-B
Tue 12:39:01 AM 37.7060 -85.6960 155° Southeast 217 250 4,300 -840 Descending FlightAware ADS-B
Tue 12:39:15 AM 37.7030 -85.6790 103° East 216 249 4,000 -621 Descending FlightAware ADS-B
Tue 12:39:59 AM 37.7180 -85.6340 67° East 193 222 3,700 -257 Descending FlightAware ADS-B
Tue 12:40:25 AM 37.7400 -85.6220 23° Northeast 190 219 3,700  Level FlightAware ADS-B
Tue 12:40:45 AM 37.7560 -85.6140 22° Northeast 194 223 3,700  Level FlightAware ADS-B
Tue 12:41:17 AM 37.7820 -85.6160 357° North 181 208 3,700  Level FlightAware ADS-B
Tue 12:41:39 AM 37.8000 -85.6220 345° North 182 209 3,700  Level FlightAware ADS-B
Tue 12:41:51 AM 37.8100 -85.6250 347° North 184 212 3,700  Level FlightAware ADS-B
Tue 12:42:23 AM 37.8350 -85.6330 346° North 183 211 3,700  Level FlightAware ADS-B
Tue 12:42:58 AM 37.8640 -85.6430 345° North 181 208 3,700  Level FlightAware ADS-B
Tue 12:43:23 AM 37.8840 -85.6490 347° North 180 207 3,700  Level FlightAware ADS-B
Tue 12:44:08 AM 37.9200 -85.6610 345° North 167 192 3,700  Level FlightAware ADS-B
Tue 12:44:33 AM 37.9390 -85.6670 346° North 163 188 3,700  Level FlightAware ADS-B
Tue 12:45:08 AM 37.9630 -85.6750 345° North 159 183 3,700  Level FlightAware ADS-B
Tue 12:45:33 AM 37.9810 -85.6810 345° North 161 185 3,700 -120 Level FlightAware ADS-B
Tue 12:45:58 AM 37.9990 -85.6870 345° North 157 181 3,600 -655 Descending FlightAware ADS-B
Tue 12:46:28 AM 38.0200 -85.6940 345° North 153 176 3,100 -982 Descending FlightAware ADS-B
Tue 12:46:53 AM 38.0380 -85.7000 345° North 150 173 2,700 -840 Descending FlightAware ADS-B
Tue 12:47:18 AM 38.0540 -85.7050 346° North 152 175 2,400 -818 Descending FlightAware ADS-B
Tue 12:47:37 AM 38.0680 -85.7100 344° North 141 162 2,100 -842 Descending FlightAware ADS-B
Tue 12:48:15 AM 38.0920 -85.7170 347° North 136 157 1,600 -828 Descending FlightAware ADS-B
Tue 12:48:35 AM 38.1040 -85.7210 345° North 141 162 1,300 -714 Descending FlightAware ADS-B
Tue 12:48:57 AM 38.1170 -85.7260 343° North 134 154 1,100 -625 Descending FlightAware ADS-B
Tue 12:49:23 AM 38.1330 -85.7310 346° North 133 153 800 -724 Descending FlightAware ADS-B
Tue 12:49:55 AM 38.1520 -85.7370 346° North 132 152 400 -554 Descending FlightAware ADS-B
Tue 12:50:28 AM 38.1700 -85.7440 343° North 134 154 200 -364 Descending FlightAware ADS-B

Login

Don't have an account? Register now (free) for customized features, flight alerts, and more!